sensor_id;sensor_type;location;lat;lon;timestamp;temperature;humidity
1021;DHT22;499;42.648;23.270;2023-07-29T00:01:40;18.20;22.40
1021;DHT22;499;42.648;23.270;2023-07-29T00:04:08;18.20;22.90
1021;DHT22;499;42.648;23.270;2023-07-29T00:06:35;18.30;22.60
1021;DHT22;499;42.648;23.270;2023-07-29T00:09:03;18.30;22.80
1021;DHT22;499;42.648;23.270;2023-07-29T00:11:31;18.30;22.90
1021;DHT22;499;42.648;23.270;2023-07-29T00:13:59;18.40;22.50
1021;DHT22;499;42.648;23.270;2023-07-29T00:16:26;18.30;22.80
1021;DHT22;499;42.648;23.270;2023-07-29T00:18:53;18.20;23.20
1021;DHT22;499;42.648;23.270;2023-07-29T00:21:20;18.30;22.90
1021;DHT22;499;42.648;23.270;2023-07-29T00:23:47;18.30;22.90
1021;DHT22;499;42.648;23.270;2023-07-29T00:26:14;18.30;22.80
1021;DHT22;499;42.648;23.270;2023-07-29T00:28:42;18.40;22.80
1021;DHT22;499;42.648;23.270;2023-07-29T00:31:09;18.40;22.50
1021;DHT22;499;42.648;23.270;2023-07-29T00:33:36;18.20;23.00
1021;DHT22;499;42.648;23.270;2023-07-29T00:36:04;18.10;23.40
1021;DHT22;499;42.648;23.270;2023-07-29T00:38:31;18.00;23.90
1021;DHT22;499;42.648;23.270;2023-07-29T00:40:58;18.00;24.20
1021;DHT22;499;42.648;23.270;2023-07-29T00:43:26;18.10;23.90
1021;DHT22;499;42.648;23.270;2023-07-29T00:45:54;18.10;23.60
1021;DHT22;499;42.648;23.270;2023-07-29T00:48:23;18.00;23.80
1021;DHT22;499;42.648;23.270;2023-07-29T00:50:51;17.80;24.60
1021;DHT22;499;42.648;23.270;2023-07-29T00:53:18;17.80;24.70
1021;DHT22;499;42.648;23.270;2023-07-29T00:55:45;17.70;24.60
1021;DHT22;499;42.648;23.270;2023-07-29T00:58:12;17.80;24.70
1021;DHT22;499;42.648;23.270;2023-07-29T01:00:40;17.90;24.30
1021;DHT22;499;42.648;23.270;2023-07-29T01:03:08;17.90;24.10
1021;DHT22;499;42.648;23.270;2023-07-29T01:05:40;17.90;24.30
1021;DHT22;499;42.648;23.270;2023-07-29T01:08:16;17.80;24.60
1021;DHT22;499;42.648;23.270;2023-07-29T01:10:58;17.70;24.60
1021;DHT22;499;42.648;23.270;2023-07-29T01:13:33;17.80;24.60
1021;DHT22;499;42.648;23.270;2023-07-29T01:16:08;17.80;24.60
1021;DHT22;499;42.648;23.270;2023-07-29T01:18:38;17.80;24.60
1021;DHT22;499;42.648;23.270;2023-07-29T01:21:08;17.70;24.60
1021;DHT22;499;42.648;23.270;2023-07-29T01:23:37;17.50;25.50
1021;DHT22;499;42.648;23.270;2023-07-29T01:26:03;17.40;25.90
1021;DHT22;499;42.648;23.270;2023-07-29T01:28:30;17.30;26.70
1021;DHT22;499;42.648;23.270;2023-07-29T01:31:01;17.40;26.70
1021;DHT22;499;42.648;23.270;2023-07-29T01:33:35;17.50;26.20
1021;DHT22;499;42.648;23.270;2023-07-29T01:36:11;17.40;26.50
1021;DHT22;499;42.648;23.270;2023-07-29T01:38:41;17.30;27.20
1021;DHT22;499;42.648;23.270;2023-07-29T01:41:10;17.20;27.60
1021;DHT22;499;42.648;23.270;2023-07-29T01:43:38;17.10;27.60
1021;DHT22;499;42.648;23.270;2023-07-29T01:46:09;17.00;28.00
1021;DHT22;499;42.648;23.270;2023-07-29T01:48:37;17.00;28.40
1021;DHT22;499;42.648;23.270;2023-07-29T01:51:04;17.10;28.10
1021;DHT22;499;42.648;23.270;2023-07-29T01:53:31;17.20;27.90
1021;DHT22;499;42.648;23.270;2023-07-29T01:56:00;17.10;28.10
1021;DHT22;499;42.648;23.270;2023-07-29T01:58:27;16.90;28.50
1021;DHT22;499;42.648;23.270;2023-07-29T02:00:54;17.00;28.90
1021;DHT22;499;42.648;23.270;2023-07-29T02:03:20;16.90;28.80
1021;DHT22;499;42.648;23.270;2023-07-29T02:05:47;16.90;29.10
1021;DHT22;499;42.648;23.270;2023-07-29T02:08:15;16.90;29.10
1021;DHT22;499;42.648;23.270;2023-07-29T02:10:42;16.80;29.50
1021;DHT22;499;42.648;23.270;2023-07-29T02:13:12;16.80;29.70
1021;DHT22;499;42.648;23.270;2023-07-29T02:15:39;16.80;29.70
1021;DHT22;499;42.648;23.270;2023-07-29T02:18:06;16.80;30.00
1021;DHT22;499;42.648;23.270;2023-07-29T02:20:33;16.80;30.00
1021;DHT22;499;42.648;23.270;2023-07-29T02:23:00;16.80;29.80
1021;DHT22;499;42.648;23.270;2023-07-29T02:25:27;17.00;29.20
1021;DHT22;499;42.648;23.270;2023-07-29T02:27:54;17.00;28.50
1021;DHT22;499;42.648;23.270;2023-07-29T02:30:22;17.00;28.70
1021;DHT22;499;42.648;23.270;2023-07-29T02:32:49;17.00;28.70
1021;DHT22;499;42.648;23.270;2023-07-29T02:35:16;16.90;29.20
1021;DHT22;499;42.648;23.270;2023-07-29T02:37:43;16.90;29.30
1021;DHT22;499;42.648;23.270;2023-07-29T02:40:11;16.90;29.40
1021;DHT22;499;42.648;23.270;2023-07-29T02:42:38;16.90;29.50
1021;DHT22;499;42.648;23.270;2023-07-29T02:45:06;16.90;29.00
1021;DHT22;499;42.648;23.270;2023-07-29T02:47:36;17.00;29.00
1021;DHT22;499;42.648;23.270;2023-07-29T02:50:04;16.80;30.10
1021;DHT22;499;42.648;23.270;2023-07-29T02:52:31;16.70;30.70
1021;DHT22;499;42.648;23.270;2023-07-29T02:54:58;16.60;31.80
1021;DHT22;499;42.648;23.270;2023-07-29T02:57:25;16.70;30.90
1021;DHT22;499;42.648;23.270;2023-07-29T02:59:52;16.80;30.00
1021;DHT22;499;42.648;23.270;2023-07-29T03:02:19;16.80;29.60
1021;DHT22;499;42.648;23.270;2023-07-29T03:04:49;16.80;29.90
1021;DHT22;499;42.648;23.270;2023-07-29T03:07:16;16.90;29.60
1021;DHT22;499;42.648;23.270;2023-07-29T03:09:43;16.60;30.70
1021;DHT22;499;42.648;23.270;2023-07-29T03:12:10;16.50;31.80
1021;DHT22;499;42.648;23.270;2023-07-29T03:14:37;16.60;31.80
1021;DHT22;499;42.648;23.270;2023-07-29T03:17:05;16.70;31.10
1021;DHT22;499;42.648;23.270;2023-07-29T03:19:32;16.80;30.60
1021;DHT22;499;42.648;23.270;2023-07-29T03:22:00;16.80;30.60
1021;DHT22;499;42.648;23.270;2023-07-29T03:24:27;16.80;30.20
1021;DHT22;499;42.648;23.270;2023-07-29T03:26:54;16.80;31.20
1021;DHT22;499;42.648;23.270;2023-07-29T03:29:21;17.00;31.00
1021;DHT22;499;42.648;23.270;2023-07-29T03:31:48;17.30;30.10
1021;DHT22;499;42.648;23.270;2023-07-29T03:34:15;17.60;28.40
1021;DHT22;499;42.648;23.270;2023-07-29T03:36:42;17.90;27.10
1021;DHT22;499;42.648;23.270;2023-07-29T03:39:13;18.20;26.40
1021;DHT22;499;42.648;23.270;2023-07-29T03:41:40;18.20;26.00
1021;DHT22;499;42.648;23.270;2023-07-29T03:44:06;18.20;26.20
1021;DHT22;499;42.648;23.270;2023-07-29T03:46:33;18.40;26.00
1021;DHT22;499;42.648;23.270;2023-07-29T03:49:00;18.40;25.60
1021;DHT22;499;42.648;23.270;2023-07-29T03:51:28;18.50;25.30
1021;DHT22;499;42.648;23.270;2023-07-29T03:53:55;18.40;25.60
1021;DHT22;499;42.648;23.270;2023-07-29T03:56:24;18.40;25.10
1021;DHT22;499;42.648;23.270;2023-07-29T03:58:51;18.40;25.00
1021;DHT22;499;42.648;23.270;2023-07-29T04:01:18;18.50;25.10
1021;DHT22;499;42.648;23.270;2023-07-29T04:03:45;18.50;25.10
1021;DHT22;499;42.648;23.270;2023-07-29T04:06:12;18.30;25.20
1021;DHT22;499;42.648;23.270;2023-07-29T04:08:39;18.20;25.90
1021;DHT22;499;42.648;23.270;2023-07-29T04:11:07;18.20;25.90
1021;DHT22;499;42.648;23.270;2023-07-29T04:13:35;18.20;26.40
1021;DHT22;499;42.648;23.270;2023-07-29T04:16:03;18.10;26.80
1021;DHT22;499;42.648;23.270;2023-07-29T04:18:30;18.10;26.70
1021;DHT22;499;42.648;23.270;2023-07-29T04:20:57;18.20;27.10
1021;DHT22;499;42.648;23.270;2023-07-29T04:23:24;18.20;27.50
1021;DHT22;499;42.648;23.270;2023-07-29T04:25:51;18.20;27.40
1021;DHT22;499;42.648;23.270;2023-07-29T04:28:18;18.20;27.30
1021;DHT22;499;42.648;23.270;2023-07-29T04:30:47;18.30;27.40
1021;DHT22;499;42.648;23.270;2023-07-29T04:33:14;18.30;27.40
1021;DHT22;499;42.648;23.270;2023-07-29T04:35:41;18.30;27.40
1021;DHT22;499;42.648;23.270;2023-07-29T04:38:08;18.40;27.30
1021;DHT22;499;42.648;23.270;2023-07-29T04:40:35;18.50;26.80
1021;DHT22;499;42.648;23.270;2023-07-29T04:43:02;18.40;26.80
1021;DHT22;499;42.648;23.270;2023-07-29T04:45:29;18.40;27.00
1021;DHT22;499;42.648;23.270;2023-07-29T04:47:58;18.40;27.30
1021;DHT22;499;42.648;23.270;2023-07-29T04:50:25;18.50;27.10
1021;DHT22;499;42.648;23.270;2023-07-29T04:52:52;18.60;27.10
1021;DHT22;499;42.648;23.270;2023-07-29T04:55:19;18.60;27.10
1021;DHT22;499;42.648;23.270;2023-07-29T04:57:46;18.60;27.10
1021;DHT22;499;42.648;23.270;2023-07-29T05:00:13;18.70;27.90
1021;DHT22;499;42.648;23.270;2023-07-29T05:02:40;18.80;27.30
1021;DHT22;499;42.648;23.270;2023-07-29T05:05:09;18.90;27.00
1021;DHT22;499;42.648;23.270;2023-07-29T05:07:36;18.90;26.40
1021;DHT22;499;42.648;23.270;2023-07-29T05:10:03;18.80;27.10
1021;DHT22;499;42.648;23.270;2023-07-29T05:12:31;18.80;27.00
1021;DHT22;499;42.648;23.270;2023-07-29T05:14:58;18.80;27.30
1021;DHT22;499;42.648;23.270;2023-07-29T05:17:25;18.80;27.40
1021;DHT22;499;42.648;23.270;2023-07-29T05:19:52;18.80;27.50
1021;DHT22;499;42.648;23.270;2023-07-29T05:22:21;18.90;28.20
1021;DHT22;499;42.648;23.270;2023-07-29T05:24:47;19.00;26.40
1021;DHT22;499;42.648;23.270;2023-07-29T05:27:14;19.10;26.80
1021;DHT22;499;42.648;23.270;2023-07-29T05:29:42;19.20;26.90
1021;DHT22;499;42.648;23.270;2023-07-29T05:32:09;19.40;25.70
1021;DHT22;499;42.648;23.270;2023-07-29T05:34:36;19.50;25.80
1021;DHT22;499;42.648;23.270;2023-07-29T05:37:03;19.60;25.80
1021;DHT22;499;42.648;23.270;2023-07-29T05:39:31;19.60;25.80
1021;DHT22;499;42.648;23.270;2023-07-29T05:41:59;19.80;25.90
1021;DHT22;499;42.648;23.270;2023-07-29T05:44:28;19.90;24.70
1021;DHT22;499;42.648;23.270;2023-07-29T05:46:56;20.00;24.90
1021;DHT22;499;42.648;23.270;2023-07-29T05:49:23;20.10;26.20
1021;DHT22;499;42.648;23.270;2023-07-29T05:51:50;20.20;25.30
1021;DHT22;499;42.648;23.270;2023-07-29T05:54:18;20.10;23.90
1021;DHT22;499;42.648;23.270;2023-07-29T05:56:47;20.20;23.30
1021;DHT22;499;42.648;23.270;2023-07-29T05:59:14;20.20;24.50
1021;DHT22;499;42.648;23.270;2023-07-29T06:01:41;20.30;23.90
1021;DHT22;499;42.648;23.270;2023-07-29T06:04:07;20.50;23.20
1021;DHT22;499;42.648;23.270;2023-07-29T06:06:34;20.60;22.10
1021;DHT22;499;42.648;23.270;2023-07-29T06:09:01;20.70;21.90
1021;DHT22;499;42.648;23.270;2023-07-29T06:11:28;20.70;21.80
1021;DHT22;499;42.648;23.270;2023-07-29T06:13:56;20.80;21.20
1021;DHT22;499;42.648;23.270;2023-07-29T06:16:23;21.00;22.20
1021;DHT22;499;42.648;23.270;2023-07-29T06:18:49;21.20;21.40
1021;DHT22;499;42.648;23.270;2023-07-29T06:21:18;21.40;21.50
1021;DHT22;499;42.648;23.270;2023-07-29T06:23:46;21.60;20.10
1021;DHT22;499;42.648;23.270;2023-07-29T06:26:13;21.70;19.70
1021;DHT22;499;42.648;23.270;2023-07-29T06:28:40;21.80;20.30
1021;DHT22;499;42.648;23.270;2023-07-29T06:31:08;21.90;19.40
1021;DHT22;499;42.648;23.270;2023-07-29T06:33:35;22.00;19.50
1021;DHT22;499;42.648;23.270;2023-07-29T06:36:02;22.20;18.60
1021;DHT22;499;42.648;23.270;2023-07-29T06:38:29;22.20;19.60
1021;DHT22;499;42.648;23.270;2023-07-29T06:40:57;22.30;20.20
1021;DHT22;499;42.648;23.270;2023-07-29T06:43:24;22.40;19.00
1021;DHT22;499;42.648;23.270;2023-07-29T06:45:51;22.40;18.20
1021;DHT22;499;42.648;23.270;2023-07-29T06:48:19;22.40;19.40
1021;DHT22;499;42.648;23.270;2023-07-29T06:50:47;22.50;18.50
1021;DHT22;499;42.648;23.270;2023-07-29T06:53:14;22.50;17.60
1021;DHT22;499;42.648;23.270;2023-07-29T06:55:40;22.50;18.30
1021;DHT22;499;42.648;23.270;2023-07-29T06:58:07;22.70;18.60
1021;DHT22;499;42.648;23.270;2023-07-29T07:00:34;22.60;17.20
1021;DHT22;499;42.648;23.270;2023-07-29T07:03:01;22.70;17.40
1021;DHT22;499;42.648;23.270;2023-07-29T07:05:30;22.90;17.30
1021;DHT22;499;42.648;23.270;2023-07-29T07:07:57;22.90;17.10
1021;DHT22;499;42.648;23.270;2023-07-29T07:10:24;22.90;16.40
1021;DHT22;499;42.648;23.270;2023-07-29T07:12:51;23.10;16.40
1021;DHT22;499;42.648;23.270;2023-07-29T07:15:18;23.20;16.90
1021;DHT22;499;42.648;23.270;2023-07-29T07:17:45;23.30;15.50
1021;DHT22;499;42.648;23.270;2023-07-29T07:20:11;23.40;15.40
1021;DHT22;499;42.648;23.270;2023-07-29T07:22:40;23.40;15.70
1021;DHT22;499;42.648;23.270;2023-07-29T07:25:07;23.40;15.70
1021;DHT22;499;42.648;23.270;2023-07-29T07:27:35;23.30;15.40
1021;DHT22;499;42.648;23.270;2023-07-29T07:30:03;23.40;15.40
1021;DHT22;499;42.648;23.270;2023-07-29T07:32:30;23.50;14.90
1021;DHT22;499;42.648;23.270;2023-07-29T07:34:57;23.50;15.40
1021;DHT22;499;42.648;23.270;2023-07-29T07:37:24;23.70;15.50
1021;DHT22;499;42.648;23.270;2023-07-29T07:39:52;23.90;14.90
1021;DHT22;499;42.648;23.270;2023-07-29T07:42:19;23.90;13.30
1021;DHT22;499;42.648;23.270;2023-07-29T07:44:46;23.90;14.30
1021;DHT22;499;42.648;23.270;2023-07-29T07:47:13;24.10;14.00
1021;DHT22;499;42.648;23.270;2023-07-29T07:49:40;24.30;14.00
1021;DHT22;499;42.648;23.270;2023-07-29T07:52:07;24.20;13.40
1021;DHT22;499;42.648;23.270;2023-07-29T07:54:34;24.10;12.70
1021;DHT22;499;42.648;23.270;2023-07-29T07:57:03;24.00;12.70
1021;DHT22;499;42.648;23.270;2023-07-29T07:59:30;24.00;12.70
1021;DHT22;499;42.648;23.270;2023-07-29T08:01:57;24.10;13.50
1021;DHT22;499;42.648;23.270;2023-07-29T08:04:24;24.20;12.80
1021;DHT22;499;42.648;23.270;2023-07-29T08:06:51;24.40;12.90
1021;DHT22;499;42.648;23.270;2023-07-29T08:09:18;24.40;12.90
1021;DHT22;499;42.648;23.270;2023-07-29T08:11:45;24.50;13.00
1021;DHT22;499;42.648;23.270;2023-07-29T08:14:13;24.50;12.40
1021;DHT22;499;42.648;23.270;2023-07-29T08:16:40;24.40;12.40
1021;DHT22;499;42.648;23.270;2023-07-29T08:19:07;24.40;12.10
1021;DHT22;499;42.648;23.270;2023-07-29T08:21:35;24.50;12.00
1021;DHT22;499;42.648;23.270;2023-07-29T08:24:02;24.50;11.70
1021;DHT22;499;42.648;23.270;2023-07-29T08:26:29;24.40;11.00
1021;DHT22;499;42.648;23.270;2023-07-29T08:28:56;24.40;11.40
1021;DHT22;499;42.648;23.270;2023-07-29T08:31:25;24.60;12.00
1021;DHT22;499;42.648;23.270;2023-07-29T08:33:52;24.70;11.90
1021;DHT22;499;42.648;23.270;2023-07-29T08:36:19;24.80;11.50
1021;DHT22;499;42.648;23.270;2023-07-29T08:38:46;24.90;10.40
1021;DHT22;499;42.648;23.270;2023-07-29T08:41:14;25.00;11.70
1021;DHT22;499;42.648;23.270;2023-07-29T08:43:46;25.10;10.60
1021;DHT22;499;42.648;23.270;2023-07-29T08:46:16;25.30;11.70
1021;DHT22;499;42.648;23.270;2023-07-29T08:48:46;25.40;9.30
1021;DHT22;499;42.648;23.270;2023-07-29T08:51:13;25.50;10.30
1021;DHT22;499;42.648;23.270;2023-07-29T08:53:41;25.60;8.70
1021;DHT22;499;42.648;23.270;2023-07-29T08:56:09;25.70;9.70
1021;DHT22;499;42.648;23.270;2023-07-29T08:58:36;25.70;8.80
1021;DHT22;499;42.648;23.270;2023-07-29T09:01:04;25.70;9.10
1021;DHT22;499;42.648;23.270;2023-07-29T09:03:32;25.60;9.20
1021;DHT22;499;42.648;23.270;2023-07-29T09:06:02;25.80;9.50
1021;DHT22;499;42.648;23.270;2023-07-29T09:08:29;26.00;8.40
1021;DHT22;499;42.648;23.270;2023-07-29T09:10:57;26.10;7.60
1021;DHT22;499;42.648;23.270;2023-07-29T09:13:24;26.10;6.40
1021;DHT22;499;42.648;23.270;2023-07-29T09:15:55;25.80;6.30
1021;DHT22;499;42.648;23.270;2023-07-29T09:18:22;25.80;7.10
1021;DHT22;499;42.648;23.270;2023-07-29T09:20:50;25.90;7.00
1021;DHT22;499;42.648;23.270;2023-07-29T09:23:18;26.10;7.10
1021;DHT22;499;42.648;23.270;2023-07-29T09:25:46;26.30;6.70
1021;DHT22;499;42.648;23.270;2023-07-29T09:28:15;26.40;5.60
1021;DHT22;499;42.648;23.270;2023-07-29T09:30:44;26.50;6.10
1021;DHT22;499;42.648;23.270;2023-07-29T09:33:11;26.60;5.70
1021;DHT22;499;42.648;23.270;2023-07-29T09:35:38;26.50;5.70
1021;DHT22;499;42.648;23.270;2023-07-29T09:38:06;26.60;5.70
1021;DHT22;499;42.648;23.270;2023-07-29T09:40:38;26.70;5.80
1021;DHT22;499;42.648;23.270;2023-07-29T09:43:08;26.90;5.10
1021;DHT22;499;42.648;23.270;2023-07-29T09:45:36;26.80;3.60
1021;DHT22;499;42.648;23.270;2023-07-29T09:48:04;26.80;4.40
1021;DHT22;499;42.648;23.270;2023-07-29T09:50:35;26.90;5.00
1021;DHT22;499;42.648;23.270;2023-07-29T09:53:02;27.00;5.30
1021;DHT22;499;42.648;23.270;2023-07-29T09:55:32;27.10;4.60
1021;DHT22;499;42.648;23.270;2023-07-29T09:58:01;27.10;4.00
1021;DHT22;499;42.648;23.270;2023-07-29T10:00:32;27.10;3.90
1021;DHT22;499;42.648;23.270;2023-07-29T10:03:00;27.10;5.40
1021;DHT22;499;42.648;23.270;2023-07-29T10:05:28;27.00;3.90
1021;DHT22;499;42.648;23.270;2023-07-29T10:07:56;27.10;3.90
1021;DHT22;499;42.648;23.270;2023-07-29T10:10:23;27.10;3.30
1021;DHT22;499;42.648;23.270;2023-07-29T10:12:50;27.10;2.70
1021;DHT22;499;42.648;23.270;2023-07-29T10:15:19;27.10;3.20
1021;DHT22;499;42.648;23.270;2023-07-29T10:17:48;27.10;3.20
1021;DHT22;499;42.648;23.270;2023-07-29T10:20:16;27.20;3.00
1021;DHT22;499;42.648;23.270;2023-07-29T10:22:46;27.20;2.40
1021;DHT22;499;42.648;23.270;2023-07-29T10:25:16;27.40;2.40
1021;DHT22;499;42.648;23.270;2023-07-29T10:27:47;27.50;1.10
1021;DHT22;499;42.648;23.270;2023-07-29T10:30:14;27.50;1.80
1021;DHT22;499;42.648;23.270;2023-07-29T10:32:46;27.70;3.00
1021;DHT22;499;42.648;23.270;2023-07-29T10:35:13;27.90;1.70
1021;DHT22;499;42.648;23.270;2023-07-29T10:37:41;28.00;2.20
1021;DHT22;499;42.648;23.270;2023-07-29T10:40:10;28.10;2.10
1021;DHT22;499;42.648;23.270;2023-07-29T10:42:38;28.30;2.60
1021;DHT22;499;42.648;23.270;2023-07-29T10:45:18;28.40;1.50
1021;DHT22;499;42.648;23.270;2023-07-29T10:47:47;28.40;1.00
1021;DHT22;499;42.648;23.270;2023-07-29T10:50:18;28.40;1.00
1021;DHT22;499;42.648;23.270;2023-07-29T10:52:50;28.40;1.00
1021;DHT22;499;42.648;23.270;2023-07-29T10:55:28;28.40;1.00
1021;DHT22;499;42.648;23.270;2023-07-29T10:58:10;28.20;1.00
1021;DHT22;499;42.648;23.270;2023-07-29T11:00:38;28.20;1.00
1021;DHT22;499;42.648;23.270;2023-07-29T11:03:07;28.30;1.10
1021;DHT22;499;42.648;23.270;2023-07-29T11:05:46;28.30;1.00
1021;DHT22;499;42.648;23.270;2023-07-29T11:08:17;28.40;1.00
1021;DHT22;499;42.648;23.270;2023-07-29T11:10:46;28.50;1.00
1021;DHT22;499;42.648;23.270;2023-07-29T11:13:26;28.50;1.00
1021;DHT22;499;42.648;23.270;2023-07-29T11:15:54;28.50;1.00
1021;DHT22;499;42.648;23.270;2023-07-29T11:18:26;28.40;1.00
1021;DHT22;499;42.648;23.270;2023-07-29T11:20:54;28.50;1.00
1021;DHT22;499;42.648;23.270;2023-07-29T11:23:21;28.40;1.00
1021;DHT22;499;42.648;23.270;2023-07-29T11:25:49;28.50;1.00
1021;DHT22;499;42.648;23.270;2023-07-29T11:28:16;28.50;1.00
1021;DHT22;499;42.648;23.270;2023-07-29T11:30:43;28.60;1.00
1021;DHT22;499;42.648;23.270;2023-07-29T11:33:10;28.90;1.00
1021;DHT22;499;42.648;23.270;2023-07-29T11:35:39;28.80;1.00
1021;DHT22;499;42.648;23.270;2023-07-29T11:38:06;29.00;1.00
1021;DHT22;499;42.648;23.270;2023-07-29T11:40:33;29.20;1.00
1021;DHT22;499;42.648;23.270;2023-07-29T11:43:01;29.30;1.00
1021;DHT22;499;42.648;23.270;2023-07-29T11:45:28;29.40;1.00
1021;DHT22;499;42.648;23.270;2023-07-29T11:47:55;29.60;1.00
1021;DHT22;499;42.648;23.270;2023-07-29T11:50:22;29.70;1.00
1021;DHT22;499;42.648;23.270;2023-07-29T11:52:50;29.80;1.00
1021;DHT22;499;42.648;23.270;2023-07-29T11:55:17;29.80;1.00
1021;DHT22;499;42.648;23.270;2023-07-29T11:57:50;29.80;1.00
1021;DHT22;499;42.648;23.270;2023-07-29T12:00:18;29.60;1.00
1021;DHT22;499;42.648;23.270;2023-07-29T12:02:45;29.40;1.00
1021;DHT22;499;42.648;23.270;2023-07-29T12:05:14;29.50;1.00
1021;DHT22;499;42.648;23.270;2023-07-29T12:07:42;29.30;1.00
1021;DHT22;499;42.648;23.270;2023-07-29T12:10:11;29.40;1.00
1021;DHT22;499;42.648;23.270;2023-07-29T12:12:44;29.40;1.00
1021;DHT22;499;42.648;23.270;2023-07-29T12:15:11;29.50;1.00
1021;DHT22;499;42.648;23.270;2023-07-29T12:17:40;29.60;1.00
1021;DHT22;499;42.648;23.270;2023-07-29T12:20:09;29.50;1.00
1021;DHT22;499;42.648;23.270;2023-07-29T12:22:36;29.50;1.00
1021;DHT22;499;42.648;23.270;2023-07-29T12:25:04;29.50;1.00
1021;DHT22;499;42.648;23.270;2023-07-29T12:27:33;29.40;1.00
1021;DHT22;499;42.648;23.270;2023-07-29T12:30:01;29.50;1.00
1021;DHT22;499;42.648;23.270;2023-07-29T12:32:29;29.70;1.00
1021;DHT22;499;42.648;23.270;2023-07-29T12:34:56;30.00;1.00
1021;DHT22;499;42.648;23.270;2023-07-29T12:37:31;30.10;1.00
1021;DHT22;499;42.648;23.270;2023-07-29T12:39:58;30.30;1.00
1021;DHT22;499;42.648;23.270;2023-07-29T12:42:25;30.20;1.00
1021;DHT22;499;42.648;23.270;2023-07-29T12:44:54;30.00;1.00
1021;DHT22;499;42.648;23.270;2023-07-29T12:47:21;30.00;1.00
1021;DHT22;499;42.648;23.270;2023-07-29T12:49:48;30.10;1.00
1021;DHT22;499;42.648;23.270;2023-07-29T12:52:15;29.90;1.00
1021;DHT22;499;42.648;23.270;2023-07-29T12:54:42;29.90;1.00
1021;DHT22;499;42.648;23.270;2023-07-29T12:57:09;29.90;1.00
1021;DHT22;499;42.648;23.270;2023-07-29T12:59:36;29.90;1.00
1021;DHT22;499;42.648;23.270;2023-07-29T13:02:05;29.90;1.00
1021;DHT22;499;42.648;23.270;2023-07-29T13:04:32;30.00;1.00
1021;DHT22;499;42.648;23.270;2023-07-29T13:06:59;30.00;1.00
1021;DHT22;499;42.648;23.270;2023-07-29T13:09:26;30.00;1.00
1021;DHT22;499;42.648;23.270;2023-07-29T13:11:53;30.00;1.00
1021;DHT22;499;42.648;23.270;2023-07-29T13:14:20;30.10;1.00
1021;DHT22;499;42.648;23.270;2023-07-29T13:16:47;30.10;1.00
1021;DHT22;499;42.648;23.270;2023-07-29T13:19:15;29.80;1.00
1021;DHT22;499;42.648;23.270;2023-07-29T13:21:42;29.80;1.00
1021;DHT22;499;42.648;23.270;2023-07-29T13:24:09;29.90;1.00
1021;DHT22;499;42.648;23.270;2023-07-29T13:26:36;29.90;1.00
1021;DHT22;499;42.648;23.270;2023-07-29T13:29:04;29.90;1.00
1021;DHT22;499;42.648;23.270;2023-07-29T13:31:31;29.90;1.00
1021;DHT22;499;42.648;23.270;2023-07-29T13:33:58;29.80;1.00
1021;DHT22;499;42.648;23.270;2023-07-29T13:36:26;29.70;1.00
1021;DHT22;499;42.648;23.270;2023-07-29T13:38:53;29.80;1.00
1021;DHT22;499;42.648;23.270;2023-07-29T13:41:20;29.90;1.00
1021;DHT22;499;42.648;23.270;2023-07-29T13:43:47;30.10;1.00
1021;DHT22;499;42.648;23.270;2023-07-29T13:46:14;30.30;1.00
1021;DHT22;499;42.648;23.270;2023-07-29T13:48:41;30.40;1.00
1021;DHT22;499;42.648;23.270;2023-07-29T13:51:08;30.40;1.00
1021;DHT22;499;42.648;23.270;2023-07-29T13:53:36;30.30;1.00
1021;DHT22;499;42.648;23.270;2023-07-29T13:56:04;30.20;1.00
1021;DHT22;499;42.648;23.270;2023-07-29T13:58:31;30.20;1.00
1021;DHT22;499;42.648;23.270;2023-07-29T14:00:58;30.00;1.00
1021;DHT22;499;42.648;23.270;2023-07-29T14:03:25;30.10;1.00
1021;DHT22;499;42.648;23.270;2023-07-29T14:05:52;30.10;1.00
1021;DHT22;499;42.648;23.270;2023-07-29T14:08:19;30.00;1.00
1021;DHT22;499;42.648;23.270;2023-07-29T14:10:47;30.10;1.00
1021;DHT22;499;42.648;23.270;2023-07-29T14:13:15;30.10;1.00
1021;DHT22;499;42.648;23.270;2023-07-29T14:15:42;30.20;1.00
1021;DHT22;499;42.648;23.270;2023-07-29T14:18:09;30.10;1.00
1021;DHT22;499;42.648;23.270;2023-07-29T14:20:36;30.10;1.00
1021;DHT22;499;42.648;23.270;2023-07-29T14:23:03;30.20;1.00
1021;DHT22;499;42.648;23.270;2023-07-29T14:25:30;30.30;1.00
1021;DHT22;499;42.648;23.270;2023-07-29T14:27:58;30.40;1.00
1021;DHT22;499;42.648;23.270;2023-07-29T14:30:25;30.60;1.00
1021;DHT22;499;42.648;23.270;2023-07-29T14:32:52;30.60;1.00
1021;DHT22;499;42.648;23.270;2023-07-29T14:35:19;30.50;1.00
1021;DHT22;499;42.648;23.270;2023-07-29T14:37:46;30.50;1.00
1021;DHT22;499;42.648;23.270;2023-07-29T14:40:13;30.60;1.00
1021;DHT22;499;42.648;23.270;2023-07-29T14:42:40;30.60;1.00
1021;DHT22;499;42.648;23.270;2023-07-29T14:45:09;30.70;1.00
1021;DHT22;499;42.648;23.270;2023-07-29T14:47:36;30.70;1.00
1021;DHT22;499;42.648;23.270;2023-07-29T14:50:04;30.70;1.00
1021;DHT22;499;42.648;23.270;2023-07-29T14:52:31;30.80;1.00
1021;DHT22;499;42.648;23.270;2023-07-29T14:54:58;30.50;1.00
1021;DHT22;499;42.648;23.270;2023-07-29T14:57:25;30.20;1.00
1021;DHT22;499;42.648;23.270;2023-07-29T14:59:52;30.00;1.00
1021;DHT22;499;42.648;23.270;2023-07-29T15:02:20;29.80;1.00
1021;DHT22;499;42.648;23.270;2023-07-29T15:04:48;29.60;1.00
1021;DHT22;499;42.648;23.270;2023-07-29T15:07:15;29.40;1.00
1021;DHT22;499;42.648;23.270;2023-07-29T15:09:42;29.40;1.00
1021;DHT22;499;42.648;23.270;2023-07-29T15:12:09;29.30;1.00
1021;DHT22;499;42.648;23.270;2023-07-29T15:14:36;29.10;1.00
1021;DHT22;499;42.648;23.270;2023-07-29T15:17:03;28.90;1.00
1021;DHT22;499;42.648;23.270;2023-07-29T15:19:31;28.80;1.00
1021;DHT22;499;42.648;23.270;2023-07-29T15:21:58;28.80;1.00
1021;DHT22;499;42.648;23.270;2023-07-29T15:24:25;28.70;1.20
1021;DHT22;499;42.648;23.270;2023-07-29T15:26:52;28.80;1.40
1021;DHT22;499;42.648;23.270;2023-07-29T15:29:19;28.80;1.30
1021;DHT22;499;42.648;23.270;2023-07-29T15:31:46;28.90;1.40
1021;DHT22;499;42.648;23.270;2023-07-29T15:34:13;28.90;1.70
1021;DHT22;499;42.648;23.270;2023-07-29T15:36:42;29.00;2.00
1021;DHT22;499;42.648;23.270;2023-07-29T15:39:09;29.00;1.80
1021;DHT22;499;42.648;23.270;2023-07-29T15:41:36;29.00;2.20
1021;DHT22;499;42.648;23.270;2023-07-29T15:44:03;28.90;2.20
1021;DHT22;499;42.648;23.270;2023-07-29T15:46:30;28.90;2.30
1021;DHT22;499;42.648;23.270;2023-07-29T15:48:57;28.80;2.50
1021;DHT22;499;42.648;23.270;2023-07-29T15:51:25;28.90;2.60
1021;DHT22;499;42.648;23.270;2023-07-29T15:53:54;29.10;2.50
1021;DHT22;499;42.648;23.270;2023-07-29T15:56:20;29.70;1.60
1021;DHT22;499;42.648;23.270;2023-07-29T15:58:47;30.20;1.10
1021;DHT22;499;42.648;23.270;2023-07-29T16:01:14;30.40;1.00
1021;DHT22;499;42.648;23.270;2023-07-29T16:03:41;30.20;1.00
1021;DHT22;499;42.648;23.270;2023-07-29T16:06:08;30.00;1.00
1021;DHT22;499;42.648;23.270;2023-07-29T16:08:35;29.70;1.50
1021;DHT22;499;42.648;23.270;2023-07-29T16:11:04;29.60;1.90
1021;DHT22;499;42.648;23.270;2023-07-29T16:13:31;29.20;2.40